createdAt,value
2017-08-29T00:00:24.425Z,-4.10
2017-08-29T00:01:24.491Z,-4.10
2017-08-29T00:02:19.519Z,-4.10
2017-08-29T00:03:14.561Z,-4.10
2017-08-29T00:04:14.510Z,-4.10
2017-08-29T00:05:09.698Z,-4.10
2017-08-29T00:06:04.674Z,-4.10
2017-08-29T00:07:05.652Z,-4.09
2017-08-29T00:08:05.697Z,-4.09
2017-08-29T00:09:05.860Z,-4.09
2017-08-29T00:10:05.798Z,-4.10
2017-08-29T00:11:06.762Z,-4.09
2017-08-29T00:12:07.774Z,-4.09
2017-08-29T00:13:01.850Z,-4.09
2017-08-29T00:14:01.952Z,-4.09
2017-08-29T00:14:56.932Z,-4.09
2017-08-29T00:15:51.967Z,-4.09
2017-08-29T00:16:52.031Z,-4.09
2017-08-29T00:17:47.070Z,-4.10
2017-08-29T00:18:42.092Z,-4.10
2017-08-29T00:19:42.121Z,-4.10
2017-08-29T00:20:37.182Z,-4.10
2017-08-29T00:21:32.254Z,-4.10
2017-08-29T00:22:33.238Z,-4.10
2017-08-29T00:23:33.272Z,-4.10
2017-08-29T00:24:33.294Z,-4.10
2017-08-29T00:25:28.368Z,-4.10
2017-08-29T00:26:22.347Z,-4.10
2017-08-29T00:27:22.457Z,-4.10
2017-08-29T00:28:17.476Z,-4.10
2017-08-29T00:29:17.561Z,-4.10
2017-08-29T00:30:17.604Z,-4.10
2017-08-29T00:31:17.577Z,-4.10
2017-08-29T00:32:17.611Z,-4.10
2017-08-29T00:33:17.641Z,-4.10
2017-08-29T00:34:11.705Z,-4.10
2017-08-29T00:35:11.720Z,-4.10
2017-08-29T00:36:06.740Z,-4.10
2017-08-29T00:37:06.744Z,-4.10
2017-08-29T00:38:00.859Z,-4.10
2017-08-29T00:39:00.787Z,-4.10
2017-08-29T00:39:55.866Z,-4.10
2017-08-29T00:40:50.942Z,-4.10
2017-08-29T00:41:51.023Z,-4.10
2017-08-29T00:42:46.059Z,-4.10
2017-08-29T00:43:40.997Z,-4.10
2017-08-29T00:44:42.136Z,-4.10
2017-08-29T00:45:42.013Z,-4.10
2017-08-29T00:46:42.078Z,-4.10
2017-08-29T00:47:37.202Z,-4.10
2017-08-29T00:48:31.226Z,-4.10
2017-08-29T00:49:31.245Z,-4.10
2017-08-29T00:50:26.292Z,-4.10
2017-08-29T00:51:26.295Z,-4.10
2017-08-29T00:52:20.427Z,-4.10
2017-08-29T00:53:20.442Z,-4.10
2017-08-29T00:54:15.419Z,-4.10
2017-08-29T00:55:10.483Z,-4.10
2017-08-29T00:56:10.519Z,-4.10
2017-08-29T00:57:05.545Z,-4.10
2017-08-29T00:58:00.569Z,-4.10
2017-08-29T00:59:06.569Z,-4.10
2017-08-29T01:00:00.606Z,-4.10
2017-08-29T01:01:01.626Z,-4.10
2017-08-29T01:02:01.715Z,-4.10
2017-08-29T01:03:01.795Z,-4.10
2017-08-29T01:03:56.744Z,-4.10
2017-08-29T01:04:56.783Z,-4.10
2017-08-29T01:05:56.914Z,-4.10
2017-08-29T01:06:56.859Z,-4.10
2017-08-29T01:07:57.008Z,-4.10
2017-08-29T01:08:56.916Z,-4.10
2017-08-29T01:09:56.941Z,-4.10
2017-08-29T01:10:56.961Z,-4.10
2017-08-29T01:11:52.050Z,-4.10
2017-08-29T01:12:47.066Z,-4.10
2017-08-29T01:13:48.042Z,-4.10
2017-08-29T01:14:48.149Z,-4.10
2017-08-29T01:15:48.245Z,-4.10
2017-08-29T01:16:43.248Z,-4.10
2017-08-29T01:17:37.222Z,-4.10
2017-08-29T01:18:37.246Z,-4.10
2017-08-29T01:19:32.297Z,-4.10
2017-08-29T01:20:32.328Z,-4.10
2017-08-29T01:21:32.479Z,-4.10
2017-08-29T01:22:32.481Z,-4.10
2017-08-29T01:23:26.456Z,-4.10
2017-08-29T01:24:26.501Z,-4.10
2017-08-29T01:25:21.584Z,-4.10
2017-08-29T01:26:21.532Z,-4.10
2017-08-29T01:27:15.598Z,-4.10
2017-08-29T01:28:15.677Z,-4.10
2017-08-29T01:29:10.630Z,-4.10
2017-08-29T01:30:05.717Z,-4.10
2017-08-29T01:31:06.741Z,-4.10
2017-08-29T01:32:06.756Z,-4.10
2017-08-29T01:33:01.745Z,-4.10
2017-08-29T01:34:01.799Z,-4.10
2017-08-29T01:34:55.902Z,-4.10
2017-08-29T01:35:55.923Z,-4.10
2017-08-29T01:36:51.034Z,-4.10
2017-08-29T01:37:51.057Z,-4.10
2017-08-29T01:38:51.099Z,-4.10
2017-08-29T01:39:51.139Z,-4.10
2017-08-29T01:40:45.235Z,-4.10
2017-08-29T01:41:45.137Z,-4.10
2017-08-29T01:42:40.155Z,-4.10
2017-08-29T01:43:35.241Z,-4.10
2017-08-29T01:44:35.281Z,-4.10
2017-08-29T01:45:30.330Z,-4.10
2017-08-29T01:46:25.327Z,-4.10
2017-08-29T01:47:25.344Z,-4.10
2017-08-29T01:48:20.391Z,-4.10
2017-08-29T01:49:15.510Z,-4.10
2017-08-29T01:50:16.529Z,-4.10
2017-08-29T01:51:17.509Z,-4.10
2017-08-29T01:52:12.496Z,-4.10
2017-08-29T01:53:06.664Z,-4.10
2017-08-29T01:54:06.712Z,-4.10
2017-08-29T01:55:06.680Z,-4.10
2017-08-29T01:56:01.733Z,-4.10
2017-08-29T01:56:55.852Z,-4.10
2017-08-29T01:57:55.726Z,-4.10
2017-08-29T01:58:50.835Z,-4.10
2017-08-29T01:59:45.783Z,-4.10
2017-08-29T02:00:46.835Z,-4.10
2017-08-29T02:01:46.907Z,-4.10
2017-08-29T02:02:46.981Z,-4.10
2017-08-29T02:03:42.007Z,-4.10
2017-08-29T02:04:36.107Z,-4.10
2017-08-29T02:05:37.076Z,-4.10
2017-08-29T02:06:37.133Z,-4.10
2017-08-29T02:07:37.156Z,-4.10
2017-08-29T02:08:32.166Z,-4.10
2017-08-29T02:09:26.162Z,-4.10
2017-08-29T02:10:26.213Z,-4.10
2017-08-29T02:11:26.172Z,-4.10
2017-08-29T02:12:26.339Z,-4.10
2017-08-29T02:13:21.329Z,-4.10
2017-08-29T02:14:16.325Z,-4.10
2017-08-29T02:15:17.453Z,-4.10
2017-08-29T02:16:17.512Z,-4.10
2017-08-29T02:17:17.504Z,-4.10
2017-08-29T02:18:12.545Z,-4.10
2017-08-29T02:19:06.546Z,-4.10
2017-08-29T02:20:06.589Z,-4.10
2017-08-29T02:21:01.620Z,-4.10
2017-08-29T02:22:07.723Z,-4.10
2017-08-29T02:23:02.692Z,-4.10
2017-08-29T02:23:56.697Z,-4.10
2017-08-29T02:24:56.760Z,-4.10
2017-08-29T02:25:56.795Z,-4.10
2017-08-29T02:26:51.812Z,-4.10
2017-08-29T02:27:45.901Z,-4.10
2017-08-29T02:28:45.866Z,-4.10
2017-08-29T02:29:40.930Z,-4.10
2017-08-29T02:30:35.933Z,-4.10
2017-08-29T02:31:42.005Z,-4.10
2017-08-29T02:32:36.017Z,-4.10
2017-08-29T02:33:37.055Z,-4.10
2017-08-29T02:34:37.110Z,-4.10
2017-08-29T02:35:37.096Z,-4.10
2017-08-29T02:36:32.111Z,-4.10
2017-08-29T02:37:26.451Z,-4.10
2017-08-29T02:38:26.261Z,-4.10
2017-08-29T02:39:21.232Z,-4.10
2017-08-29T02:40:21.332Z,-4.10
2017-08-29T02:41:15.296Z,-4.10
2017-08-29T02:42:15.341Z,-4.10
2017-08-29T02:43:15.487Z,-4.10
2017-08-29T02:44:15.386Z,-4.10
2017-08-29T02:45:10.529Z,-4.10
2017-08-29T02:46:10.563Z,-4.10
2017-08-29T02:47:04.573Z,-4.10
2017-08-29T02:48:04.580Z,-4.10
2017-08-29T02:48:59.756Z,-4.10
2017-08-29T02:49:54.776Z,-4.10
2017-08-29T02:50:54.655Z,-4.10
2017-08-29T02:51:49.749Z,-4.10
2017-08-29T02:52:49.784Z,-4.10
2017-08-29T02:53:49.820Z,-4.10
2017-08-29T02:54:49.886Z,-4.10
2017-08-29T02:55:49.831Z,-4.10
2017-08-29T02:56:49.937Z,-4.10
2017-08-29T02:57:44.012Z,-4.10
2017-08-29T02:58:45.001Z,-4.10
2017-08-29T02:59:44.992Z,-4.10
2017-08-29T03:00:45.055Z,-4.10
2017-08-29T03:01:40.109Z,-4.10
2017-08-29T03:02:34.116Z,-4.10
2017-08-29T03:03:34.161Z,-4.10
2017-08-29T03:04:29.273Z,-4.10
2017-08-29T03:05:24.256Z,-4.10
2017-08-29T03:06:25.373Z,-4.10
2017-08-29T03:07:26.377Z,-4.10
2017-08-29T03:08:26.415Z,-4.10
2017-08-29T03:09:27.381Z,-4.10
2017-08-29T03:10:28.388Z,-4.10
2017-08-29T03:11:22.389Z,-4.10
2017-08-29T03:12:23.485Z,-4.10
2017-08-29T03:13:23.488Z,-4.10
2017-08-29T03:14:18.205Z,-4.10
2017-08-29T03:15:18.521Z,-4.10
2017-08-29T03:16:12.270Z,-4.10
2017-08-29T03:17:12.457Z,-4.10
2017-08-29T03:18:07.433Z,-4.10
2017-08-29T03:19:02.622Z,-4.10
2017-08-29T03:20:02.716Z,-4.10
2017-08-29T03:20:57.693Z,-4.10
2017-08-29T03:21:57.449Z,-4.10
2017-08-29T03:22:57.529Z,-4.10
2017-08-29T03:23:58.075Z,-4.10
2017-08-29T03:24:57.827Z,-4.10
2017-08-29T03:25:57.929Z,-4.10
2017-08-29T03:26:57.939Z,-4.10
2017-08-29T03:28:03.884Z,-4.10
2017-08-29T03:29:04.094Z,-4.10
2017-08-29T03:30:04.003Z,-4.10
2017-08-29T03:30:59.203Z,-4.10
2017-08-29T03:32:00.160Z,-4.10
2017-08-29T03:33:00.210Z,-4.10
2017-08-29T03:34:00.254Z,-4.10
2017-08-29T03:35:00.273Z,-4.10
2017-08-29T03:36:01.268Z,-4.10
2017-08-29T03:37:02.269Z,-4.10
2017-08-29T03:37:56.383Z,-4.10
2017-08-29T03:38:56.364Z,-4.10
2017-08-29T03:39:51.433Z,-4.10
2017-08-29T03:40:46.484Z,-4.10
2017-08-29T03:41:46.559Z,-4.10
2017-08-29T03:42:41.550Z,-4.10
2017-08-29T03:43:36.649Z,-4.10
2017-08-29T03:44:36.675Z,-4.10
2017-08-29T03:45:31.665Z,-4.10
2017-08-29T03:46:26.806Z,-4.10
2017-08-29T03:47:27.698Z,-4.10
2017-08-29T03:48:28.767Z,-4.10
2017-08-29T03:49:23.822Z,-4.10
2017-08-29T03:50:17.822Z,-4.10
2017-08-29T03:51:18.882Z,-4.10
2017-08-29T03:52:13.958Z,-4.10
2017-08-29T03:53:07.943Z,-4.10
2017-08-29T03:54:07.990Z,-4.10
2017-08-29T03:55:03.066Z,-4.10
2017-08-29T03:56:03.163Z,-4.10
2017-08-29T03:56:57.104Z,-4.10
2017-08-29T03:57:57.214Z,-4.10
2017-08-29T03:58:52.120Z,-4.10
2017-08-29T03:59:47.226Z,-4.10
2017-08-29T04:00:47.318Z,-4.10
2017-08-29T04:01:42.310Z,-4.10
2017-08-29T04:02:37.355Z,-4.10
2017-08-29T04:03:37.411Z,-4.10
2017-08-29T04:04:32.375Z,-4.10
2017-08-29T04:05:27.463Z,-4.10
2017-08-29T04:06:28.503Z,-4.10
2017-08-29T04:07:28.493Z,-4.10
2017-08-29T04:08:28.534Z,-4.10
2017-08-29T04:09:23.608Z,-4.10
2017-08-29T04:10:23.555Z,-4.10
2017-08-29T04:11:23.699Z,-4.10
2017-08-29T04:12:17.755Z,-4.10
2017-08-29T04:13:17.836Z,-4.10
2017-08-29T04:14:12.762Z,-4.10
2017-08-29T04:15:12.765Z,-4.10
2017-08-29T04:16:12.845Z,-4.10
2017-08-29T04:17:12.881Z,-4.10
2017-08-29T04:18:12.843Z,-4.10
2017-08-29T04:19:12.945Z,-4.10
2017-08-29T04:20:06.929Z,-4.10
2017-08-29T04:21:07.075Z,-4.10
2017-08-29T04:22:02.041Z,-4.10
2017-08-29T04:22:57.099Z,-4.10
2017-08-29T04:23:57.057Z,-4.10
2017-08-29T04:24:52.102Z,-4.10
2017-08-29T04:25:47.254Z,-4.10
2017-08-29T04:26:41.247Z,-4.10
2017-08-29T04:27:47.336Z,-4.10
2017-08-29T04:28:41.275Z,-4.10
2017-08-29T04:29:42.343Z,-4.10
2017-08-29T04:30:37.347Z,-4.10
2017-08-29T04:31:37.410Z,-4.10
2017-08-29T04:32:37.482Z,-4.10
2017-08-29T04:33:37.372Z,-4.10
2017-08-29T04:34:37.541Z,-4.10
2017-08-29T04:35:37.497Z,-4.10
2017-08-29T04:36:37.480Z,-4.10
2017-08-29T04:37:37.710Z,-4.10
2017-08-29T04:38:37.696Z,-4.10
2017-08-29T04:39:37.663Z,-4.10
2017-08-29T04:40:43.827Z,-4.10
2017-08-29T04:41:38.759Z,-4.10
2017-08-29T04:42:32.766Z,-4.10
2017-08-29T04:43:32.750Z,-4.10
2017-08-29T04:44:27.919Z,-4.10
2017-08-29T04:45:22.782Z,-4.10
2017-08-29T04:46:22.958Z,-4.10
2017-08-29T04:47:17.944Z,-4.10
2017-08-29T04:48:12.972Z,-4.10
2017-08-29T04:49:07.011Z,-4.10
2017-08-29T04:50:13.189Z,-4.10
2017-08-29T04:51:07.153Z,-4.10
2017-08-29T04:52:08.078Z,-4.10
2017-08-29T04:53:03.146Z,-4.10
2017-08-29T04:54:03.155Z,-4.10
2017-08-29T04:55:03.248Z,-4.10
2017-08-29T04:56:03.243Z,-4.10
2017-08-29T04:57:03.347Z,-4.10
2017-08-29T04:58:03.398Z,-4.10
2017-08-29T04:59:09.420Z,-4.10
2017-08-29T05:00:09.393Z,-4.10
2017-08-29T05:01:10.468Z,-4.10
2017-08-29T05:02:11.429Z,-4.10
2017-08-29T05:03:12.483Z,-4.10
2017-08-29T05:04:12.602Z,-4.10
2017-08-29T05:05:12.586Z,-4.10
2017-08-29T05:06:06.594Z,-4.10
2017-08-29T05:07:06.625Z,-4.10
2017-08-29T05:08:01.686Z,-4.10
2017-08-29T05:08:56.713Z,-4.10
2017-08-29T05:09:50.785Z,-4.10
2017-08-29T05:10:51.817Z,-4.10
2017-08-29T05:11:52.795Z,-4.10
2017-08-29T05:12:47.863Z,-4.10
2017-08-29T05:13:47.868Z,-4.10
2017-08-29T05:14:47.896Z,-4.10
2017-08-29T05:15:48.022Z,-4.10
2017-08-29T05:16:48.069Z,-4.10
2017-08-29T05:17:47.967Z,-4.09
2017-08-29T05:18:48.084Z,-4.09
2017-08-29T05:19:48.152Z,-4.09
2017-08-29T05:20:48.107Z,-4.09
2017-08-29T05:21:48.158Z,-4.09
2017-08-29T05:22:48.147Z,-4.09
2017-08-29T05:23:48.229Z,-4.09
2017-08-29T05:24:48.335Z,-4.09
2017-08-29T05:25:48.299Z,-4.09
2017-08-29T05:26:48.384Z,-4.09
2017-08-29T05:27:48.390Z,-4.09
2017-08-29T05:28:48.422Z,-4.09
2017-08-29T05:29:48.623Z,-4.09
2017-08-29T05:30:48.557Z,-4.09
2017-08-29T05:31:48.520Z,-4.09
2017-08-29T05:32:48.568Z,-4.09
2017-08-29T05:33:48.651Z,-4.09
2017-08-29T05:34:48.635Z,-4.09
2017-08-29T05:35:48.977Z,-4.08
2017-08-29T05:36:54.748Z,-4.08
2017-08-29T05:37:49.737Z,-4.08
2017-08-29T05:38:43.767Z,-4.08
2017-08-29T05:39:43.771Z,-4.07
2017-08-29T05:40:38.872Z,-4.07
2017-08-29T05:41:33.962Z,-4.07
2017-08-29T05:42:33.990Z,-4.07
2017-08-29T05:43:28.988Z,-4.07
2017-08-29T05:44:24.108Z,-4.07
2017-08-29T05:45:18.021Z,-4.07
2017-08-29T05:46:24.088Z,-4.07
2017-08-29T05:47:18.226Z,-4.07
2017-08-29T05:48:24.222Z,-4.08
2017-08-29T05:49:18.236Z,-4.08
2017-08-29T05:50:19.316Z,-4.09
2017-08-29T05:51:14.286Z,-4.09
2017-08-29T05:52:14.340Z,-4.09
2017-08-29T05:53:14.381Z,-4.09
2017-08-29T05:54:14.445Z,-4.09
2017-08-29T05:55:08.451Z,-4.09
2017-08-29T05:55:57.494Z,-4.09
2017-08-29T05:56:51.541Z,-4.09
2017-08-29T05:57:52.715Z,-4.09
2017-08-29T05:58:42.077Z,-4.09
2017-08-29T05:59:41.671Z,-4.09
2017-08-29T06:00:29.777Z,-4.09
2017-08-29T06:01:29.696Z,-4.09
2017-08-29T06:02:17.853Z,-4.09
2017-08-29T06:03:12.799Z,-4.08
2017-08-29T06:04:02.263Z,-4.08
2017-08-29T06:04:56.938Z,-4.08
2017-08-29T06:05:51.979Z,-4.08
2017-08-29T06:06:47.047Z,-4.08
2017-08-29T06:07:42.024Z,-4.08
2017-08-29T06:08:31.234Z,-4.08
2017-08-29T06:09:25.293Z,-4.08
2017-08-29T06:10:20.278Z,-4.08
2017-08-29T06:11:14.280Z,-4.08
2017-08-29T06:12:09.372Z,-4.07
2017-08-29T06:13:09.328Z,-4.07
2017-08-29T06:14:04.507Z,-4.07
2017-08-29T06:15:04.480Z,-4.07
2017-08-29T06:15:58.419Z,-4.07
2017-08-29T06:16:52.542Z,-4.06
2017-08-29T06:17:46.555Z,-4.06
2017-08-29T06:18:41.657Z,-4.06
2017-08-29T06:19:30.595Z,-4.06
2017-08-29T06:20:19.719Z,-4.06
2017-08-29T06:21:13.696Z,-4.05
2017-08-29T06:22:07.804Z,-4.05
2017-08-29T06:23:01.911Z,-4.05
2017-08-29T06:24:01.972Z,-4.05
2017-08-29T06:24:50.932Z,-4.05
2017-08-29T06:25:45.115Z,-4.04
2017-08-29T06:26:45.044Z,-4.04
2017-08-29T06:27:39.125Z,-4.04
2017-08-29T06:28:39.258Z,-4.04
2017-08-29T06:29:33.109Z,-4.04
2017-08-29T06:30:27.221Z,-4.04
2017-08-29T06:31:22.291Z,-4.04
2017-08-29T06:32:17.364Z,-4.03
2017-08-29T06:33:11.392Z,-4.03
2017-08-29T06:34:05.421Z,-4.02
2017-08-29T06:34:54.532Z,-4.02
2017-08-29T06:35:48.567Z,-4.02
2017-08-29T06:36:42.613Z,-4.02
2017-08-29T06:37:36.665Z,-4.02
2017-08-29T06:38:36.751Z,-4.02
2017-08-29T06:39:36.755Z,-4.01
2017-08-29T06:40:31.752Z,-4.01
2017-08-29T06:41:26.881Z,-4.01
2017-08-29T06:42:15.884Z,-4.01
2017-08-29T06:43:04.938Z,-4.01
2017-08-29T06:43:58.994Z,-4.01
2017-08-29T06:44:53.119Z,-4.01
2017-08-29T06:45:48.189Z,2.49
2017-08-29T06:46:43.235Z,-1.58
2017-08-29T06:47:44.304Z,5.48
2017-08-29T06:48:39.272Z,-0.13
2017-08-29T06:49:34.342Z,5.53
2017-08-29T06:50:28.324Z,11.94
2017-08-29T06:51:22.397Z,11.87
2017-08-29T06:52:23.400Z,20.92
2017-08-29T06:53:11.593Z,25.77
2017-08-29T06:54:05.569Z,24.67
2017-08-29T06:54:54.590Z,20.77
2017-08-29T06:55:42.725Z,26.38
2017-08-29T06:56:30.666Z,27.02
2017-08-29T06:57:19.920Z,22.44
2017-08-29T06:58:13.967Z,25.41
2017-08-29T06:59:13.967Z,30.89
2017-08-29T07:00:09.018Z,33.50
2017-08-29T07:00:58.106Z,24.39
2017-08-29T07:01:53.190Z,16.30
2017-08-29T07:02:47.154Z,32.94
2017-08-29T07:03:41.235Z,31.65
2017-08-29T07:04:36.334Z,21.94
2017-08-29T07:05:36.365Z,29.39
2017-08-29T07:06:30.406Z,28.90
2017-08-29T07:07:25.436Z,32.38
2017-08-29T07:08:20.548Z,38.27
2017-08-29T07:09:20.538Z,34.80
2017-08-29T07:10:20.603Z,35.33
2017-08-29T07:11:08.667Z,36.84
2017-08-29T07:11:56.751Z,29.29
2017-08-29T07:12:50.822Z,37.12
2017-08-29T07:13:45.872Z,31.87
2017-08-29T07:14:39.976Z,36.81
2017-08-29T07:15:33.967Z,42.37
2017-08-29T07:16:28.078Z,39.56
2017-08-29T07:17:23.107Z,39.98
2017-08-29T07:18:18.248Z,35.11
2017-08-29T07:19:18.290Z,37.49
2017-08-29T07:20:07.698Z,34.09
2017-08-29T07:21:01.372Z,35.30
2017-08-29T07:21:55.483Z,44.77
2017-08-29T07:22:49.555Z,43.24
2017-08-29T07:23:43.609Z,40.13
2017-08-29T07:24:38.614Z,43.18
2017-08-29T07:25:34.026Z,44.52
2017-08-29T07:26:22.826Z,43.89
2017-08-29T07:27:11.870Z,41.67
2017-08-29T07:27:59.929Z,40.26
2017-08-29T07:28:47.966Z,43.07
2017-08-29T07:29:36.088Z,43.86
2017-08-29T07:30:24.224Z,40.95
2017-08-29T07:31:24.335Z,43.27
2017-08-29T07:32:19.453Z,41.88
2017-08-29T07:33:13.432Z,44.72
2017-08-29T07:34:08.590Z,41.34
2017-08-29T07:35:02.498Z,42.12
2017-08-29T07:35:57.591Z,40.77
2017-08-29T07:36:57.716Z,42.97
2017-08-29T07:37:51.761Z,41.11
2017-08-29T07:38:46.892Z,43.40
2017-08-29T07:39:40.904Z,42.82
2017-08-29T07:40:34.971Z,37.71
2017-08-29T07:41:29.035Z,31.70
2017-08-29T07:42:23.422Z,45.62
2017-08-29T07:43:23.371Z,43.47
2017-08-29T07:44:17.342Z,45.15
2017-08-29T07:45:06.292Z,44.40
2017-08-29T07:46:01.438Z,42.21
2017-08-29T07:47:02.444Z,44.98
2017-08-29T07:47:51.641Z,42.80
2017-08-29T07:48:40.694Z,39.97
2017-08-29T07:49:40.810Z,45.38
2017-08-29T07:50:35.795Z,46.55
2017-08-29T07:51:29.995Z,44.69
2017-08-29T07:52:30.922Z,45.04
2017-08-29T07:53:26.156Z,43.36
2017-08-29T07:54:20.088Z,41.86
2017-08-29T07:55:14.304Z,46.05
2017-08-29T07:56:08.391Z,45.94
2017-08-29T07:56:56.429Z,44.59
2017-08-29T07:57:50.522Z,45.53
2017-08-29T07:58:50.537Z,47.12
2017-08-29T07:59:44.633Z,46.67
2017-08-29T08:00:38.696Z,45.10
2017-08-29T08:01:26.843Z,45.04
2017-08-29T08:02:15.904Z,46.69
2017-08-29T08:03:03.967Z,45.87
2017-08-29T08:03:57.989Z,46.58
2017-08-29T08:04:46.165Z,46.49
2017-08-29T08:05:34.264Z,46.67
2017-08-29T08:06:23.212Z,46.56
2017-08-29T08:07:12.362Z,43.00
2017-08-29T08:08:01.452Z,45.00
2017-08-29T08:09:01.612Z,45.19
2017-08-29T08:09:56.617Z,46.53
2017-08-29T08:10:56.707Z,44.66
2017-08-29T08:11:45.782Z,45.86
2017-08-29T08:12:39.921Z,47.27
2017-08-29T08:13:35.032Z,47.19
2017-08-29T08:14:24.015Z,46.75
2017-08-29T08:15:19.165Z,44.84
2017-08-29T08:16:13.190Z,46.83
2017-08-29T08:17:13.204Z,45.38
2017-08-29T08:18:02.350Z,47.40
2017-08-29T08:18:56.315Z,46.87
2017-08-29T08:19:51.655Z,46.86
2017-08-29T08:20:40.602Z,46.82
2017-08-29T08:21:34.631Z,47.19
2017-08-29T08:22:29.706Z,45.92
2017-08-29T08:23:24.759Z,47.02
2017-08-29T08:24:18.851Z,45.23
2017-08-29T08:25:13.142Z,43.67
2017-08-29T08:26:02.018Z,44.87
2017-08-29T08:26:57.066Z,43.24
2017-08-29T08:27:52.191Z,44.23
2017-08-29T08:28:40.303Z,45.68
2017-08-29T08:29:35.403Z,46.75
2017-08-29T08:30:30.391Z,47.09
2017-08-29T08:31:19.450Z,46.17
2017-08-29T08:32:07.602Z,45.26
2017-08-29T08:33:01.632Z,47.19
2017-08-29T08:34:02.819Z,47.25
2017-08-29T08:34:57.834Z,47.15
2017-08-29T08:35:52.901Z,47.09
2017-08-29T08:36:46.934Z,47.34
2017-08-29T08:37:42.099Z,46.82
2017-08-29T08:38:36.133Z,47.37
2017-08-29T08:39:31.265Z,47.41
2017-08-29T08:40:25.342Z,47.37
2017-08-29T08:41:14.425Z,47.79
2017-08-29T08:42:08.421Z,46.39
2017-08-29T08:43:03.593Z,44.50
2017-08-29T08:43:57.670Z,40.99
2017-08-29T08:44:51.729Z,42.10
2017-08-29T08:45:46.864Z,42.44
2017-08-29T08:46:40.870Z,43.21
2017-08-29T08:47:34.932Z,47.20
2017-08-29T08:48:30.026Z,45.33
2017-08-29T08:49:19.070Z,46.48
2017-08-29T08:50:07.184Z,47.49
2017-08-29T08:51:01.193Z,47.83
2017-08-29T08:51:49.365Z,45.09
2017-08-29T08:52:43.533Z,47.27
2017-08-29T08:53:37.536Z,47.51
2017-08-29T08:54:32.567Z,46.77
2017-08-29T08:55:26.711Z,44.86
2017-08-29T08:56:15.757Z,46.44
2017-08-29T08:57:03.892Z,46.20
2017-08-29T08:57:57.961Z,47.69
2017-08-29T08:58:46.027Z,47.51
2017-08-29T08:59:35.099Z,47.87
2017-08-29T09:00:24.107Z,47.78
2017-08-29T09:01:18.250Z,47.84
2017-08-29T09:02:12.519Z,45.84
2017-08-29T09:03:06.451Z,47.90
2017-08-29T09:04:00.506Z,47.94
2017-08-29T09:04:55.569Z,47.89
2017-08-29T09:05:49.607Z,47.27
2017-08-29T09:06:38.685Z,46.74
2017-08-29T09:07:27.872Z,45.51
2017-08-29T09:08:22.928Z,47.81
2017-08-29T09:09:22.981Z,47.81
2017-08-29T09:10:17.050Z,47.37
2017-08-29T09:11:11.252Z,47.33
2017-08-29T09:12:06.209Z,47.91
2017-08-29T09:13:01.332Z,47.54
2017-08-29T09:13:55.309Z,47.21
2017-08-29T09:14:44.437Z,47.61
2017-08-29T09:15:33.467Z,47.29
2017-08-29T09:16:27.730Z,48.00
2017-08-29T09:17:22.720Z,47.54
2017-08-29T09:18:22.829Z,47.39
2017-08-29T09:19:11.926Z,47.61
2017-08-29T09:20:05.923Z,47.58
2017-08-29T09:20:54.990Z,48.27
2017-08-29T09:21:49.131Z,47.89
2017-08-29T09:22:50.257Z,47.73
2017-08-29T09:23:45.497Z,47.62
2017-08-29T09:24:33.414Z,47.89
2017-08-29T09:25:28.414Z,47.74
2017-08-29T09:26:28.504Z,47.72
2017-08-29T09:27:23.609Z,46.53
2017-08-29T09:28:17.691Z,47.61
2017-08-29T09:29:12.096Z,47.67
2017-08-29T09:30:06.838Z,46.93
2017-08-29T09:31:00.888Z,47.73
2017-08-29T09:31:55.044Z,47.29
2017-08-29T09:32:56.202Z,47.30
2017-08-29T09:33:51.198Z,47.53
2017-08-29T09:34:45.300Z,47.76
2017-08-29T09:35:40.334Z,47.62
2017-08-29T09:36:29.454Z,47.43
2017-08-29T09:37:23.544Z,47.20
2017-08-29T09:38:17.711Z,46.98
2017-08-29T09:39:06.750Z,47.88
2017-08-29T09:39:56.054Z,47.13
2017-08-29T09:40:49.852Z,47.71
2017-08-29T09:41:45.018Z,47.39
2017-08-29T09:42:39.056Z,47.00
2017-08-29T09:43:28.363Z,47.48
2017-08-29T09:44:22.230Z,47.82
2017-08-29T09:45:10.540Z,48.14
2017-08-29T09:45:58.405Z,47.78
2017-08-29T09:46:52.382Z,48.02
2017-08-29T09:47:46.602Z,48.05
2017-08-29T09:48:46.626Z,47.94
2017-08-29T09:49:40.735Z,48.05
2017-08-29T09:50:35.858Z,47.77
2017-08-29T09:51:30.808Z,48.31
2017-08-29T09:52:24.988Z,47.87
2017-08-29T09:53:14.114Z,47.87
2017-08-29T09:54:02.107Z,46.42
2017-08-29T09:54:57.175Z,46.71
2017-08-29T09:55:46.339Z,47.80
2017-08-29T09:56:40.386Z,47.65
2017-08-29T09:57:34.454Z,47.80
2017-08-29T09:58:23.582Z,48.32
2017-08-29T09:59:17.548Z,47.80
2017-08-29T10:00:11.706Z,47.66
2017-08-29T10:01:00.056Z,47.95
2017-08-29T10:01:53.825Z,47.46
2017-08-29T10:02:47.862Z,47.76
2017-08-29T10:03:36.994Z,46.79
2017-08-29T10:04:31.125Z,48.21
2017-08-29T10:05:25.198Z,47.49
2017-08-29T10:06:14.345Z,48.07
2017-08-29T10:07:03.369Z,47.61
2017-08-29T10:07:58.430Z,47.96
2017-08-29T10:08:58.575Z,48.36
2017-08-29T10:10:04.625Z,47.78
2017-08-29T10:11:05.756Z,48.37
2017-08-29T10:11:59.832Z,47.00
2017-08-29T10:12:59.904Z,47.56
2017-08-29T10:14:00.994Z,47.79
2017-08-29T10:14:50.011Z,46.53
2017-08-29T10:15:44.106Z,46.86
2017-08-29T10:16:38.212Z,47.63
2017-08-29T10:17:27.333Z,46.10
2017-08-29T10:18:21.391Z,47.62
2017-08-29T10:19:16.464Z,47.07
2017-08-29T10:20:05.550Z,47.81
2017-08-29T10:20:54.709Z,48.44
2017-08-29T10:21:48.689Z,48.10
2017-08-29T10:22:42.799Z,46.47
2017-08-29T10:23:31.948Z,46.83
2017-08-29T10:24:21.018Z,47.53
2017-08-29T10:25:10.035Z,45.84
2017-08-29T10:26:04.063Z,46.45
2017-08-29T10:27:04.171Z,45.77
2017-08-29T10:27:59.374Z,46.14
2017-08-29T10:28:48.438Z,45.76
2017-08-29T10:29:36.605Z,44.68
2017-08-29T10:30:25.632Z,45.80
2017-08-29T10:31:14.701Z,46.23
2017-08-29T10:32:08.806Z,44.83
2017-08-29T10:33:02.952Z,45.22
2017-08-29T10:33:51.942Z,45.80
2017-08-29T10:34:40.986Z,46.21
2017-08-29T10:35:29.145Z,45.55
2017-08-29T10:36:17.123Z,45.47
2017-08-29T10:37:11.354Z,44.74
2017-08-29T10:38:05.353Z,44.38
2017-08-29T10:38:54.530Z,44.29
2017-08-29T10:39:43.468Z,42.79
2017-08-29T10:40:38.691Z,44.46
2017-08-29T10:41:38.752Z,45.42
2017-08-29T10:42:32.828Z,44.96
2017-08-29T10:43:21.877Z,46.13
2017-08-29T10:44:10.973Z,45.34
2017-08-29T10:45:05.078Z,44.10
2017-08-29T10:45:53.147Z,45.61
2017-08-29T10:46:47.254Z,43.94
2017-08-29T10:47:36.310Z,43.28
2017-08-29T10:48:30.820Z,44.73
2017-08-29T10:49:30.436Z,45.08
2017-08-29T10:50:24.522Z,44.44
2017-08-29T10:51:25.574Z,44.32
2017-08-29T10:52:25.793Z,44.92
2017-08-29T10:53:25.798Z,44.64
2017-08-29T10:54:20.106Z,44.44
2017-08-29T10:55:13.953Z,43.70
2017-08-29T10:56:03.003Z,43.17
2017-08-29T10:56:57.150Z,42.95
2017-08-29T10:57:52.225Z,43.28
2017-08-29T10:58:53.340Z,45.32
2017-08-29T10:59:48.634Z,45.21
2017-08-29T11:00:42.456Z,45.49
2017-08-29T11:01:36.655Z,42.64
2017-08-29T11:02:25.689Z,43.94
2017-08-29T11:03:14.738Z,44.15
2017-08-29T11:04:14.785Z,43.83
2017-08-29T11:05:09.374Z,42.36
2017-08-29T11:06:02.952Z,44.08
2017-08-29T11:06:57.101Z,44.15
2017-08-29T11:07:46.045Z,42.24
2017-08-29T11:08:35.289Z,41.41
2017-08-29T11:09:30.368Z,41.00
2017-08-29T11:10:24.543Z,43.22
2017-08-29T11:11:13.364Z,42.83
2017-08-29T11:12:07.513Z,41.97
2017-08-29T11:13:07.693Z,39.82
2017-08-29T11:14:01.782Z,39.80
2017-08-29T11:15:01.862Z,40.79
2017-08-29T11:16:01.920Z,41.14
2017-08-29T11:16:55.941Z,39.81
2017-08-29T11:17:50.124Z,39.12
2017-08-29T11:18:44.175Z,40.18
2017-08-29T11:19:33.305Z,39.15
2017-08-29T11:20:27.275Z,37.63
2017-08-29T11:21:15.494Z,38.99
2017-08-29T11:22:09.494Z,40.08
2017-08-29T11:23:03.585Z,38.48
2017-08-29T11:24:03.609Z,37.68
2017-08-29T11:24:58.733Z,39.08
2017-08-29T11:25:46.800Z,38.99
2017-08-29T11:26:41.844Z,40.19
2017-08-29T11:27:36.062Z,40.54
2017-08-29T11:28:31.090Z,39.37
2017-08-29T11:29:25.061Z,38.94
2017-08-29T11:30:19.175Z,41.91
2017-08-29T11:31:14.237Z,41.71
2017-08-29T11:32:02.593Z,37.31
2017-08-29T11:32:56.480Z,40.28
2017-08-29T11:33:50.509Z,39.39
2017-08-29T11:34:38.646Z,41.08
2017-08-29T11:35:27.746Z,43.22
2017-08-29T11:36:21.774Z,38.78
2017-08-29T11:37:16.205Z,39.03
2017-08-29T11:38:09.966Z,40.60
2017-08-29T11:38:59.127Z,40.90
2017-08-29T11:39:53.074Z,41.75
2017-08-29T11:40:41.189Z,42.24
2017-08-29T11:41:36.309Z,41.19
2017-08-29T11:42:30.650Z,39.57
2017-08-29T11:43:24.513Z,38.54
2017-08-29T11:44:12.600Z,40.23
2017-08-29T11:45:07.553Z,39.51
2017-08-29T11:46:02.832Z,40.65
2017-08-29T11:46:56.875Z,38.94
2017-08-29T11:47:45.959Z,41.01
2017-08-29T11:48:45.973Z,39.36
2017-08-29T11:49:41.084Z,39.35
2017-08-29T11:50:41.109Z,39.27
2017-08-29T11:51:42.238Z,38.74
2017-08-29T11:52:31.302Z,39.38
2017-08-29T11:53:25.394Z,38.85
2017-08-29T11:54:19.506Z,37.86
2017-08-29T11:55:13.608Z,40.05
2017-08-29T11:56:08.698Z,37.37
2017-08-29T11:57:02.789Z,38.58
2017-08-29T11:57:57.864Z,40.59